sensor_id;sensor_type;location;lat;lon;timestamp;pressure;altitude;pressure_sealevel;temperature;humidity
46379;BME280;32084;42.254;22.744;2023-05-27T00:01:29;95175.34;;;14.90;92.61
46379;BME280;32084;42.254;22.744;2023-05-27T00:03:55;95174.03;;;15.01;90.85
46379;BME280;32084;42.254;22.744;2023-05-27T00:06:21;95170.47;;;15.00;90.69
46379;BME280;32084;42.254;22.744;2023-05-27T00:08:47;95168.78;;;14.78;92.53
46379;BME280;32084;42.254;22.744;2023-05-27T00:11:12;95168.72;;;14.48;93.61
46379;BME280;32084;42.254;22.744;2023-05-27T00:13:38;95171.81;;;14.60;93.17
46379;BME280;32084;42.254;22.744;2023-05-27T00:16:04;95162.47;;;14.71;92.60
46379;BME280;32084;42.254;22.744;2023-05-27T00:18:31;95165.69;;;14.81;93.14
46379;BME280;32084;42.254;22.744;2023-05-27T00:20:58;95158.34;;;15.05;92.05
46379;BME280;32084;42.254;22.744;2023-05-27T00:23:25;95166.94;;;15.15;92.02
46379;BME280;32084;42.254;22.744;2023-05-27T00:25:50;95172.66;;;14.60;90.62
46379;BME280;32084;42.254;22.744;2023-05-27T00:28:16;95168.09;;;14.46;92.58
46379;BME280;32084;42.254;22.744;2023-05-27T00:30:42;95156.97;;;14.79;93.70
46379;BME280;32084;42.254;22.744;2023-05-27T00:33:08;95152.47;;;15.16;91.60
46379;BME280;32084;42.254;22.744;2023-05-27T00:35:34;95152.03;;;15.34;90.57
46379;BME280;32084;42.254;22.744;2023-05-27T00:38:00;95150.75;;;15.51;89.86
46379;BME280;32084;42.254;22.744;2023-05-27T00:40:26;95147.19;;;15.66;89.08
46379;BME280;32084;42.254;22.744;2023-05-27T00:42:54;95159.91;;;15.93;87.04
46379;BME280;32084;42.254;22.744;2023-05-27T00:45:20;95152.69;;;16.00;86.61
46379;BME280;32084;42.254;22.744;2023-05-27T00:47:46;95153.53;;;16.01;86.34
46379;BME280;32084;42.254;22.744;2023-05-27T00:50:12;95149.88;;;15.87;87.14
46379;BME280;32084;42.254;22.744;2023-05-27T00:52:38;95154.00;;;15.83;87.28
46379;BME280;32084;42.254;22.744;2023-05-27T00:55:05;95151.91;;;15.78;87.93
46379;BME280;32084;42.254;22.744;2023-05-27T00:57:31;95144.47;;;15.80;88.03
46379;BME280;32084;42.254;22.744;2023-05-27T00:59:58;95141.94;;;15.79;88.26
46379;BME280;32084;42.254;22.744;2023-05-27T01:02:24;95141.84;;;15.72;86.41
46379;BME280;32084;42.254;22.744;2023-05-27T01:04:51;95141.31;;;15.19;87.23
46379;BME280;32084;42.254;22.744;2023-05-27T01:07:22;95143.34;;;15.17;88.50
46379;BME280;32084;42.254;22.744;2023-05-27T01:09:55;95151.63;;;15.15;89.71
46379;BME280;32084;42.254;22.744;2023-05-27T01:14:56;95143.97;;;14.97;90.56
46379;BME280;32084;42.254;22.744;2023-05-27T01:17:23;95146.66;;;14.82;90.40
46379;BME280;32084;42.254;22.744;2023-05-27T01:19:50;95135.44;;;14.64;90.07
46379;BME280;32084;42.254;22.744;2023-05-27T01:22:17;95139.00;;;14.64;90.95
46379;BME280;32084;42.254;22.744;2023-05-27T01:24:44;95138.59;;;14.68;91.69
46379;BME280;32084;42.254;22.744;2023-05-27T01:27:10;95143.63;;;14.71;91.70
46379;BME280;32084;42.254;22.744;2023-05-27T01:29:41;95139.44;;;14.68;91.48
46379;BME280;32084;42.254;22.744;2023-05-27T01:34:40;95143.94;;;14.08;91.33
46379;BME280;32084;42.254;22.744;2023-05-27T01:37:08;95156.81;;;14.13;93.18
46379;BME280;32084;42.254;22.744;2023-05-27T01:39:35;95146.69;;;14.00;96.89
46379;BME280;32084;42.254;22.744;2023-05-27T01:42:01;95153.09;;;13.99;97.76
46379;BME280;32084;42.254;22.744;2023-05-27T01:44:29;95152.16;;;14.06;97.42
46379;BME280;32084;42.254;22.744;2023-05-27T01:47:01;95164.34;;;14.32;95.43
46379;BME280;32084;42.254;22.744;2023-05-27T01:49:30;95153.88;;;14.37;94.45
46379;BME280;32084;42.254;22.744;2023-05-27T01:51:56;95147.66;;;14.37;94.22
46379;BME280;32084;42.254;22.744;2023-05-27T01:54:22;95148.22;;;14.47;94.02
46379;BME280;32084;42.254;22.744;2023-05-27T01:56:48;95148.66;;;14.06;92.98
46379;BME280;32084;42.254;22.744;2023-05-27T01:59:14;95144.34;;;13.82;94.91
46379;BME280;32084;42.254;22.744;2023-05-27T02:01:40;95149.28;;;13.93;94.81
46379;BME280;32084;42.254;22.744;2023-05-27T02:04:07;95142.25;;;14.07;94.32
46379;BME280;32084;42.254;22.744;2023-05-27T02:06:33;95142.84;;;14.17;93.84
46379;BME280;32084;42.254;22.744;2023-05-27T02:08:59;95152.09;;;14.15;93.73
46379;BME280;32084;42.254;22.744;2023-05-27T02:11:25;95146.53;;;14.16;94.10
46379;BME280;32084;42.254;22.744;2023-05-27T02:13:52;95148.78;;;14.28;94.19
46379;BME280;32084;42.254;22.744;2023-05-27T02:16:18;95148.44;;;14.45;93.24
46379;BME280;32084;42.254;22.744;2023-05-27T02:18:49;95142.41;;;14.73;92.38
46379;BME280;32084;42.254;22.744;2023-05-27T02:21:15;95127.41;;;15.00;90.89
46379;BME280;32084;42.254;22.744;2023-05-27T02:23:41;95139.34;;;15.28;89.31
46379;BME280;32084;42.254;22.744;2023-05-27T02:26:07;95131.56;;;15.39;89.37
46379;BME280;32084;42.254;22.744;2023-05-27T02:28:33;95136.31;;;15.37;88.40
46379;BME280;32084;42.254;22.744;2023-05-27T02:30:59;95137.47;;;15.50;87.97
46379;BME280;32084;42.254;22.744;2023-05-27T02:33:25;95140.97;;;15.65;87.58
46379;BME280;32084;42.254;22.744;2023-05-27T02:35:51;95141.59;;;15.67;87.59
46379;BME280;32084;42.254;22.744;2023-05-27T02:38:17;95138.31;;;15.72;87.35
46379;BME280;32084;42.254;22.744;2023-05-27T02:40:43;95145.19;;;15.53;87.07
46379;BME280;32084;42.254;22.744;2023-05-27T02:43:08;95134.84;;;15.35;87.44
46379;BME280;32084;42.254;22.744;2023-05-27T02:45:35;95135.22;;;15.32;89.05
46379;BME280;32084;42.254;22.744;2023-05-27T02:48:00;95146.16;;;15.45;87.83
46379;BME280;32084;42.254;22.744;2023-05-27T02:50:27;95135.53;;;15.22;86.97
46379;BME280;32084;42.254;22.744;2023-05-27T02:52:53;95135.94;;;15.04;88.22
46379;BME280;32084;42.254;22.744;2023-05-27T02:55:19;95139.69;;;15.25;89.34
46379;BME280;32084;42.254;22.744;2023-05-27T02:57:45;95131.00;;;15.44;88.17
46379;BME280;32084;42.254;22.744;2023-05-27T03:00:11;95133.63;;;15.59;86.84
46379;BME280;32084;42.254;22.744;2023-05-27T03:02:37;95137.31;;;15.73;85.82
46379;BME280;32084;42.254;22.744;2023-05-27T03:05:04;95135.41;;;15.88;84.56
46379;BME280;32084;42.254;22.744;2023-05-27T03:07:30;95133.72;;;15.87;84.42
46379;BME280;32084;42.254;22.744;2023-05-27T03:09:56;95144.06;;;15.84;84.50
46379;BME280;32084;42.254;22.744;2023-05-27T03:12:22;95145.28;;;15.81;84.54
46379;BME280;32084;42.254;22.744;2023-05-27T03:14:49;95147.16;;;15.80;84.20
46379;BME280;32084;42.254;22.744;2023-05-27T03:17:15;95153.38;;;15.81;85.47
46379;BME280;32084;42.254;22.744;2023-05-27T03:19:41;95151.78;;;15.72;85.21
46379;BME280;32084;42.254;22.744;2023-05-27T03:22:08;95149.97;;;15.57;86.05
46379;BME280;32084;42.254;22.744;2023-05-27T03:24:34;95141.44;;;15.32;87.69
46379;BME280;32084;42.254;22.744;2023-05-27T03:27:01;95144.78;;;15.34;87.43
46379;BME280;32084;42.254;22.744;2023-05-27T03:29:27;95150.16;;;15.34;87.56
46379;BME280;32084;42.254;22.744;2023-05-27T03:31:53;95141.72;;;15.37;87.85
46379;BME280;32084;42.254;22.744;2023-05-27T03:34:19;95150.06;;;15.42;87.84
46379;BME280;32084;42.254;22.744;2023-05-27T03:36:45;95146.16;;;15.45;87.93
46379;BME280;32084;42.254;22.744;2023-05-27T03:39:12;95145.97;;;15.47;88.17
46379;BME280;32084;42.254;22.744;2023-05-27T03:41:38;95141.00;;;15.29;88.18
46379;BME280;32084;42.254;22.744;2023-05-27T03:44:04;95152.69;;;14.99;89.49
46379;BME280;32084;42.254;22.744;2023-05-27T03:46:31;95156.81;;;15.17;88.78
46379;BME280;32084;42.254;22.744;2023-05-27T03:48:57;95149.63;;;15.39;87.61
46379;BME280;32084;42.254;22.744;2023-05-27T03:51:23;95158.03;;;15.51;86.25
46379;BME280;32084;42.254;22.744;2023-05-27T03:53:50;95152.63;;;15.72;84.85
46379;BME280;32084;42.254;22.744;2023-05-27T03:56:16;95149.84;;;15.80;85.15
46379;BME280;32084;42.254;22.744;2023-05-27T03:58:42;95154.09;;;15.90;83.22
46379;BME280;32084;42.254;22.744;2023-05-27T04:01:08;95149.66;;;16.10;81.69
46379;BME280;32084;42.254;22.744;2023-05-27T04:03:35;95154.53;;;16.22;80.54
46379;BME280;32084;42.254;22.744;2023-05-27T04:06:01;95154.00;;;16.33;79.69
46379;BME280;32084;42.254;22.744;2023-05-27T04:08:28;95148.66;;;16.39;78.72
46379;BME280;32084;42.254;22.744;2023-05-27T04:10:54;95159.09;;;16.49;78.35
46379;BME280;32084;42.254;22.744;2023-05-27T04:13:20;95148.00;;;16.72;77.29
46379;BME280;32084;42.254;22.744;2023-05-27T04:15:47;95154.88;;;16.75;77.07
46379;BME280;32084;42.254;22.744;2023-05-27T04:18:14;95153.22;;;16.74;78.00
46379;BME280;32084;42.254;22.744;2023-05-27T04:20:40;95145.66;;;16.91;76.99
46379;BME280;32084;42.254;22.744;2023-05-27T04:23:08;95146.09;;;16.94;77.80
46379;BME280;32084;42.254;22.744;2023-05-27T04:25:34;95148.47;;;17.17;75.80
46379;BME280;32084;42.254;22.744;2023-05-27T04:28:04;95147.50;;;17.39;75.81
46379;BME280;32084;42.254;22.744;2023-05-27T04:30:30;95146.13;;;17.76;73.62
46379;BME280;32084;42.254;22.744;2023-05-27T04:32:56;95151.16;;;18.06;73.40
46379;BME280;32084;42.254;22.744;2023-05-27T04:35:23;95157.59;;;18.38;72.23
46379;BME280;32084;42.254;22.744;2023-05-27T04:37:49;95159.28;;;18.59;71.60
46379;BME280;32084;42.254;22.744;2023-05-27T04:40:15;95161.09;;;18.79;69.56
46379;BME280;32084;42.254;22.744;2023-05-27T04:42:42;95159.69;;;18.56;71.37
46379;BME280;32084;42.254;22.744;2023-05-27T04:45:09;95155.09;;;18.57;70.10
46379;BME280;32084;42.254;22.744;2023-05-27T04:47:37;95156.13;;;18.69;69.44
46379;BME280;32084;42.254;22.744;2023-05-27T04:50:03;95160.22;;;18.98;69.73
46379;BME280;32084;42.254;22.744;2023-05-27T04:52:30;95153.53;;;19.07;69.08
46379;BME280;32084;42.254;22.744;2023-05-27T04:55:04;95150.09;;;19.32;69.75
46379;BME280;32084;42.254;22.744;2023-05-27T04:57:30;95150.66;;;19.47;67.52
46379;BME280;32084;42.254;22.744;2023-05-27T04:59:56;95158.06;;;19.65;67.42
46379;BME280;32084;42.254;22.744;2023-05-27T05:02:33;95162.56;;;19.85;66.93
46379;BME280;32084;42.254;22.744;2023-05-27T05:05:06;95164.47;;;19.84;66.53
46379;BME280;32084;42.254;22.744;2023-05-27T05:07:32;95164.22;;;19.86;66.30
46379;BME280;32084;42.254;22.744;2023-05-27T05:09:59;95170.16;;;20.01;65.66
46379;BME280;32084;42.254;22.744;2023-05-27T05:12:25;95170.97;;;20.08;64.99
46379;BME280;32084;42.254;22.744;2023-05-27T05:14:51;95168.22;;;20.15;65.04
46379;BME280;32084;42.254;22.744;2023-05-27T05:17:18;95173.34;;;20.23;65.70
46379;BME280;32084;42.254;22.744;2023-05-27T05:19:44;95175.63;;;20.26;63.99
46379;BME280;32084;42.254;22.744;2023-05-27T05:22:11;95174.97;;;20.31;65.62
46379;BME280;32084;42.254;22.744;2023-05-27T05:24:39;95170.50;;;20.43;64.21
46379;BME280;32084;42.254;22.744;2023-05-27T05:27:05;95171.72;;;20.47;63.94
46379;BME280;32084;42.254;22.744;2023-05-27T05:29:34;95179.63;;;20.74;63.01
46379;BME280;32084;42.254;22.744;2023-05-27T05:32:00;95180.81;;;21.22;62.56
46379;BME280;32084;42.254;22.744;2023-05-27T05:34:26;95171.97;;;21.45;61.15
46379;BME280;32084;42.254;22.744;2023-05-27T05:36:52;95175.38;;;21.59;61.22
46379;BME280;32084;42.254;22.744;2023-05-27T05:39:18;95176.03;;;21.54;60.63
46379;BME280;32084;42.254;22.744;2023-05-27T05:41:46;95168.13;;;21.16;61.25
46379;BME280;32084;42.254;22.744;2023-05-27T05:44:12;95168.25;;;20.59;63.15
46379;BME280;32084;42.254;22.744;2023-05-27T05:46:38;95173.34;;;20.23;63.71
46379;BME280;32084;42.254;22.744;2023-05-27T05:49:04;95179.19;;;19.95;63.20
46379;BME280;32084;42.254;22.744;2023-05-27T05:51:30;95167.84;;;20.05;64.21
46379;BME280;32084;42.254;22.744;2023-05-27T05:53:57;95180.94;;;20.90;61.80
46379;BME280;32084;42.254;22.744;2023-05-27T05:56:23;95178.47;;;21.25;61.73
46379;BME280;32084;42.254;22.744;2023-05-27T05:58:49;95175.69;;;21.81;58.55
46379;BME280;32084;42.254;22.744;2023-05-27T06:01:15;95185.22;;;22.32;59.40
46379;BME280;32084;42.254;22.744;2023-05-27T06:03:41;95190.38;;;22.64;56.16
46379;BME280;32084;42.254;22.744;2023-05-27T06:06:07;95194.75;;;22.65;56.55
46379;BME280;32084;42.254;22.744;2023-05-27T06:08:34;95191.81;;;22.78;57.43
46379;BME280;32084;42.254;22.744;2023-05-27T06:11:00;95189.53;;;22.87;55.21
46379;BME280;32084;42.254;22.744;2023-05-27T06:13:26;95181.09;;;22.53;56.14
46379;BME280;32084;42.254;22.744;2023-05-27T06:15:51;95184.53;;;22.07;58.27
46379;BME280;32084;42.254;22.744;2023-05-27T06:18:17;95186.59;;;21.62;60.32
46379;BME280;32084;42.254;22.744;2023-05-27T06:20:43;95190.75;;;21.28;59.87
46379;BME280;32084;42.254;22.744;2023-05-27T06:23:09;95201.41;;;20.93;60.60
46379;BME280;32084;42.254;22.744;2023-05-27T06:25:35;95195.34;;;20.72;62.48
46379;BME280;32084;42.254;22.744;2023-05-27T06:28:01;95193.34;;;21.23;61.47
46379;BME280;32084;42.254;22.744;2023-05-27T06:30:27;95197.59;;;22.16;58.76
46379;BME280;32084;42.254;22.744;2023-05-27T06:32:53;95199.63;;;22.87;55.88
46379;BME280;32084;42.254;22.744;2023-05-27T06:35:19;95199.63;;;23.34;55.31
46379;BME280;32084;42.254;22.744;2023-05-27T06:37:45;95202.41;;;23.63;55.76
46379;BME280;32084;42.254;22.744;2023-05-27T06:40:11;95205.13;;;24.03;51.73
46379;BME280;32084;42.254;22.744;2023-05-27T06:42:37;95201.56;;;24.03;55.43
46379;BME280;32084;42.254;22.744;2023-05-27T06:45:03;95201.00;;;23.48;55.37
46379;BME280;32084;42.254;22.744;2023-05-27T06:47:30;95180.41;;;23.29;54.69
46379;BME280;32084;42.254;22.744;2023-05-27T06:49:56;95205.91;;;22.87;55.85
46379;BME280;32084;42.254;22.744;2023-05-27T06:52:22;95202.31;;;22.63;56.60
46379;BME280;32084;42.254;22.744;2023-05-27T06:54:48;95196.50;;;22.17;57.59
46379;BME280;32084;42.254;22.744;2023-05-27T06:57:14;95196.44;;;21.94;59.03
46379;BME280;32084;42.254;22.744;2023-05-27T06:59:40;95197.56;;;21.74;58.49
46379;BME280;32084;42.254;22.744;2023-05-27T07:02:06;95199.75;;;21.66;59.79
46379;BME280;32084;42.254;22.744;2023-05-27T07:04:32;95204.16;;;21.48;60.79
46379;BME280;32084;42.254;22.744;2023-05-27T07:06:58;95200.38;;;21.49;61.17
46379;BME280;32084;42.254;22.744;2023-05-27T07:09:24;95198.25;;;21.51;63.23
46379;BME280;32084;42.254;22.744;2023-05-27T07:11:50;95198.56;;;21.61;61.64
46379;BME280;32084;42.254;22.744;2023-05-27T07:14:16;95201.50;;;21.60;62.04
46379;BME280;32084;42.254;22.744;2023-05-27T07:16:42;95198.13;;;21.64;60.98
46379;BME280;32084;42.254;22.744;2023-05-27T07:19:08;95201.56;;;21.72;60.20
46379;BME280;32084;42.254;22.744;2023-05-27T07:21:34;95194.84;;;21.74;60.96
46379;BME280;32084;42.254;22.744;2023-05-27T07:24:00;95201.56;;;21.72;62.83
46379;BME280;32084;42.254;22.744;2023-05-27T07:26:29;95202.28;;;21.49;61.68
46379;BME280;32084;42.254;22.744;2023-05-27T07:28:58;95202.50;;;21.47;61.98
46379;BME280;32084;42.254;22.744;2023-05-27T07:31:25;95206.31;;;21.39;63.35
46379;BME280;32084;42.254;22.744;2023-05-27T07:33:51;95210.78;;;21.34;62.53
46379;BME280;32084;42.254;22.744;2023-05-27T07:36:17;95211.22;;;21.12;61.98
46379;BME280;32084;42.254;22.744;2023-05-27T07:38:43;95218.03;;;21.03;63.69
46379;BME280;32084;42.254;22.744;2023-05-27T07:41:10;95207.84;;;20.98;64.33
46379;BME280;32084;42.254;22.744;2023-05-27T07:43:36;95208.56;;;21.05;65.01
46379;BME280;32084;42.254;22.744;2023-05-27T07:46:02;95208.59;;;21.24;61.98
46379;BME280;32084;42.254;22.744;2023-05-27T07:48:28;95204.78;;;21.50;62.24
46379;BME280;32084;42.254;22.744;2023-05-27T07:50:54;95209.72;;;22.02;61.59
46379;BME280;32084;42.254;22.744;2023-05-27T07:53:21;95207.91;;;21.84;61.33
46379;BME280;32084;42.254;22.744;2023-05-27T07:55:47;95200.13;;;21.99;62.21
46379;BME280;32084;42.254;22.744;2023-05-27T07:58:13;95199.53;;;21.97;63.61
46379;BME280;32084;42.254;22.744;2023-05-27T08:00:39;95205.13;;;22.02;61.61
46379;BME280;32084;42.254;22.744;2023-05-27T08:03:05;95198.97;;;22.07;62.21
46379;BME280;32084;42.254;22.744;2023-05-27T08:05:31;95206.78;;;22.03;62.66
46379;BME280;32084;42.254;22.744;2023-05-27T08:07:58;95207.38;;;22.06;62.92
46379;BME280;32084;42.254;22.744;2023-05-27T08:10:24;95207.66;;;22.16;64.50
46379;BME280;32084;42.254;22.744;2023-05-27T08:12:50;95208.09;;;22.31;63.59
46379;BME280;32084;42.254;22.744;2023-05-27T08:15:16;95202.91;;;22.23;62.80
46379;BME280;32084;42.254;22.744;2023-05-27T08:17:42;95198.84;;;22.32;60.86
46379;BME280;32084;42.254;22.744;2023-05-27T08:20:10;95201.34;;;22.03;60.67
46379;BME280;32084;42.254;22.744;2023-05-27T08:22:36;95195.81;;;21.80;63.55
46379;BME280;32084;42.254;22.744;2023-05-27T08:25:02;95200.34;;;21.68;61.03
46379;BME280;32084;42.254;22.744;2023-05-27T08:27:42;95196.81;;;21.67;61.54
46379;BME280;32084;42.254;22.744;2023-05-27T08:30:08;95201.06;;;21.63;61.45
46379;BME280;32084;42.254;22.744;2023-05-27T08:32:34;95202.03;;;21.50;62.83
46379;BME280;32084;42.254;22.744;2023-05-27T08:35:00;95191.16;;;21.50;62.39
46379;BME280;32084;42.254;22.744;2023-05-27T08:37:26;95195.19;;;21.48;61.30
46379;BME280;32084;42.254;22.744;2023-05-27T08:39:52;95193.91;;;21.43;62.92
46379;BME280;32084;42.254;22.744;2023-05-27T08:42:19;95200.28;;;21.37;63.67
46379;BME280;32084;42.254;22.744;2023-05-27T08:44:45;95194.41;;;21.40;62.60
46379;BME280;32084;42.254;22.744;2023-05-27T08:47:11;95192.66;;;21.28;63.99
46379;BME280;32084;42.254;22.744;2023-05-27T08:49:37;95204.44;;;21.21;63.76
46379;BME280;32084;42.254;22.744;2023-05-27T08:52:03;95199.66;;;21.17;63.28
46379;BME280;32084;42.254;22.744;2023-05-27T08:54:32;95205.41;;;21.09;65.64
46379;BME280;32084;42.254;22.744;2023-05-27T08:56:59;95198.31;;;20.89;64.99
46379;BME280;32084;42.254;22.744;2023-05-27T08:59:26;95195.97;;;20.93;66.00
46379;BME280;32084;42.254;22.744;2023-05-27T09:01:53;95198.09;;;20.91;65.84
46379;BME280;32084;42.254;22.744;2023-05-27T09:04:20;95206.72;;;21.06;63.85
46379;BME280;32084;42.254;22.744;2023-05-27T09:06:46;95197.72;;;21.24;65.44
46379;BME280;32084;42.254;22.744;2023-05-27T09:09:12;95200.84;;;21.46;64.19
46379;BME280;32084;42.254;22.744;2023-05-27T09:11:39;95197.44;;;21.51;61.56
46379;BME280;32084;42.254;22.744;2023-05-27T09:14:05;95197.97;;;21.59;61.16
46379;BME280;32084;42.254;22.744;2023-05-27T09:16:31;95203.13;;;21.79;61.62
46379;BME280;32084;42.254;22.744;2023-05-27T09:18:57;95200.75;;;22.01;60.93
46379;BME280;32084;42.254;22.744;2023-05-27T09:21:26;95196.22;;;21.95;61.36
46379;BME280;32084;42.254;22.744;2023-05-27T09:23:56;95197.88;;;21.96;61.96
46379;BME280;32084;42.254;22.744;2023-05-27T09:26:26;95200.28;;;22.05;61.86
46379;BME280;32084;42.254;22.744;2023-05-27T09:28:53;95195.09;;;22.15;60.93
46379;BME280;32084;42.254;22.744;2023-05-27T09:31:20;95202.56;;;22.19;62.02
46379;BME280;32084;42.254;22.744;2023-05-27T09:33:46;95195.50;;;22.00;62.88
46379;BME280;32084;42.254;22.744;2023-05-27T09:36:12;95198.19;;;21.88;61.04
46379;BME280;32084;42.254;22.744;2023-05-27T09:38:38;95204.19;;;21.78;62.27
46379;BME280;32084;42.254;22.744;2023-05-27T09:41:04;95193.09;;;21.80;62.62
46379;BME280;32084;42.254;22.744;2023-05-27T09:43:30;95194.88;;;21.86;62.46
46379;BME280;32084;42.254;22.744;2023-05-27T09:46:00;95202.75;;;22.06;61.57
46379;BME280;32084;42.254;22.744;2023-05-27T09:48:29;95197.09;;;22.08;61.53
46379;BME280;32084;42.254;22.744;2023-05-27T09:50:59;95194.47;;;22.31;60.78
46379;BME280;32084;42.254;22.744;2023-05-27T09:53:26;95189.03;;;22.31;61.52
46379;BME280;32084;42.254;22.744;2023-05-27T09:55:53;95187.41;;;22.54;62.56
46379;BME280;32084;42.254;22.744;2023-05-27T09:58:20;95185.63;;;22.71;60.58
46379;BME280;32084;42.254;22.744;2023-05-27T10:00:46;95189.41;;;22.70;59.84
46379;BME280;32084;42.254;22.744;2023-05-27T10:03:13;95188.81;;;22.56;59.07
46379;BME280;32084;42.254;22.744;2023-05-27T10:05:39;95185.38;;;22.61;59.33
46379;BME280;32084;42.254;22.744;2023-05-27T10:08:06;95187.03;;;22.62;59.26
46379;BME280;32084;42.254;22.744;2023-05-27T10:10:32;95191.63;;;22.50;57.59
46379;BME280;32084;42.254;22.744;2023-05-27T10:12:58;95191.03;;;22.36;58.53
46379;BME280;32084;42.254;22.744;2023-05-27T10:15:27;95178.16;;;22.55;56.33
46379;BME280;32084;42.254;22.744;2023-05-27T10:17:54;95184.31;;;22.62;57.62
46379;BME280;32084;42.254;22.744;2023-05-27T10:20:26;95185.88;;;22.58;58.18
46379;BME280;32084;42.254;22.744;2023-05-27T10:22:53;95178.22;;;22.36;56.71
46379;BME280;32084;42.254;22.744;2023-05-27T10:25:19;95171.66;;;22.68;56.67
46379;BME280;32084;42.254;22.744;2023-05-27T10:27:45;95162.25;;;23.34;53.58
46379;BME280;32084;42.254;22.744;2023-05-27T10:30:14;95158.84;;;23.96;55.19
46379;BME280;32084;42.254;22.744;2023-05-27T10:32:59;95163.63;;;24.35;53.47
46379;BME280;32084;42.254;22.744;2023-05-27T10:35:25;95161.63;;;24.98;51.45
46379;BME280;32084;42.254;22.744;2023-05-27T10:37:52;95157.03;;;25.21;51.38
46379;BME280;32084;42.254;22.744;2023-05-27T10:40:24;95156.50;;;25.02;49.98
46379;BME280;32084;42.254;22.744;2023-05-27T10:43:00;95149.81;;;24.75;50.73
46379;BME280;32084;42.254;22.744;2023-05-27T10:45:31;95142.53;;;24.02;51.11
46379;BME280;32084;42.254;22.744;2023-05-27T10:47:58;95137.94;;;23.62;51.51
46379;BME280;32084;42.254;22.744;2023-05-27T10:50:24;95136.03;;;24.03;53.60
46379;BME280;32084;42.254;22.744;2023-05-27T10:52:54;95137.69;;;24.21;52.33
46379;BME280;32084;42.254;22.744;2023-05-27T10:55:20;95133.53;;;24.01;54.24
46379;BME280;32084;42.254;22.744;2023-05-27T10:57:47;95130.06;;;23.89;55.29
46379;BME280;32084;42.254;22.744;2023-05-27T11:00:13;95135.81;;;23.64;54.82
46379;BME280;32084;42.254;22.744;2023-05-27T11:02:40;95087.72;;;23.46;54.21
46379;BME280;32084;42.254;22.744;2023-05-27T11:05:10;95125.28;;;23.55;54.08
46379;BME280;32084;42.254;22.744;2023-05-27T11:07:37;95126.25;;;23.49;54.91
46379;BME280;32084;42.254;22.744;2023-05-27T11:10:04;95117.25;;;23.49;55.82
46379;BME280;32084;42.254;22.744;2023-05-27T11:12:32;95127.81;;;23.45;56.30
46379;BME280;32084;42.254;22.744;2023-05-27T11:14:58;95117.94;;;23.15;55.46
46379;BME280;32084;42.254;22.744;2023-05-27T11:17:24;95114.88;;;22.88;55.55
46379;BME280;32084;42.254;22.744;2023-05-27T11:19:54;95117.75;;;22.70;57.59
46379;BME280;32084;42.254;22.744;2023-05-27T11:22:20;95118.09;;;22.61;57.60
46379;BME280;32084;42.254;22.744;2023-05-27T11:24:56;95116.78;;;22.64;58.18
46379;BME280;32084;42.254;22.744;2023-05-27T11:27:22;95113.81;;;22.77;58.40
46379;BME280;32084;42.254;22.744;2023-05-27T11:29:49;95111.03;;;23.01;59.43
46379;BME280;32084;42.254;22.744;2023-05-27T11:32:17;95106.41;;;23.25;59.78
46379;BME280;32084;42.254;22.744;2023-05-27T11:34:43;95103.47;;;23.15;58.33
46379;BME280;32084;42.254;22.744;2023-05-27T11:37:10;95100.59;;;23.22;59.35
46379;BME280;32084;42.254;22.744;2023-05-27T11:39:36;95110.34;;;23.17;57.03
46379;BME280;32084;42.254;22.744;2023-05-27T11:42:04;95100.13;;;23.01;57.66
46379;BME280;32084;42.254;22.744;2023-05-27T11:44:31;95097.56;;;22.94;56.88
46379;BME280;32084;42.254;22.744;2023-05-27T11:46:58;95093.44;;;22.92;54.77
46379;BME280;32084;42.254;22.744;2023-05-27T11:49:25;95086.44;;;22.96;56.74
46379;BME280;32084;42.254;22.744;2023-05-27T11:51:53;95088.41;;;23.12;57.63
46379;BME280;32084;42.254;22.744;2023-05-27T11:54:26;95081.38;;;23.28;56.76
46379;BME280;32084;42.254;22.744;2023-05-27T11:56:53;95081.00;;;23.36;56.81
46379;BME280;32084;42.254;22.744;2023-05-27T11:59:19;95074.44;;;23.49;56.77
46379;BME280;32084;42.254;22.744;2023-05-27T12:01:46;95077.34;;;23.31;55.15
46379;BME280;32084;42.254;22.744;2023-05-27T12:04:12;95077.50;;;23.12;54.40
46379;BME280;32084;42.254;22.744;2023-05-27T12:06:38;95075.75;;;23.06;54.80
46379;BME280;32084;42.254;22.744;2023-05-27T12:09:04;95077.28;;;23.02;55.92
46379;BME280;32084;42.254;22.744;2023-05-27T12:11:31;95075.03;;;22.99;55.69
46379;BME280;32084;42.254;22.744;2023-05-27T12:13:57;95077.53;;;22.89;56.61
46379;BME280;32084;42.254;22.744;2023-05-27T12:16:23;95068.63;;;22.93;57.00
46379;BME280;32084;42.254;22.744;2023-05-27T12:18:49;95075.88;;;23.11;56.46
46379;BME280;32084;42.254;22.744;2023-05-27T12:21:16;95073.72;;;23.02;55.86
46379;BME280;32084;42.254;22.744;2023-05-27T12:23:42;95073.53;;;22.79;55.33
46379;BME280;32084;42.254;22.744;2023-05-27T12:26:08;95080.53;;;22.52;56.33
46379;BME280;32084;42.254;22.744;2023-05-27T12:28:35;95073.19;;;22.29;57.75
46379;BME280;32084;42.254;22.744;2023-05-27T12:31:02;95071.25;;;22.06;61.31
46379;BME280;32084;42.254;22.744;2023-05-27T12:33:28;95077.88;;;21.98;57.94
46379;BME280;32084;42.254;22.744;2023-05-27T12:35:54;95070.78;;;21.97;57.56
46379;BME280;32084;42.254;22.744;2023-05-27T12:38:20;95073.06;;;22.23;59.95
46379;BME280;32084;42.254;22.744;2023-05-27T12:40:46;95069.03;;;22.50;57.46
46379;BME280;32084;42.254;22.744;2023-05-27T12:43:12;95066.09;;;22.75;57.32
46379;BME280;32084;42.254;22.744;2023-05-27T12:45:38;95059.28;;;22.89;58.45
46379;BME280;32084;42.254;22.744;2023-05-27T12:48:04;95063.22;;;22.81;57.38
46379;BME280;32084;42.254;22.744;2023-05-27T12:54:02;95061.22;;;22.77;56.97
46379;BME280;32084;42.254;22.744;2023-05-27T12:56:28;95056.47;;;22.72;57.77